Time;durP1;ratioP1;P1;durP2;ratioP2;P2;SDS_P1;SDS_P2;PMS_P1;PMS_P2;Temp;Humidity;BMP_temperature;BMP_pressure;BME280_temperature;BME280_humidity;BME280_pressure;Samples;Min_cycle;Max_cycle;Signal;HPM_P1;HPM_P2
2024/03/24 00:00:12;;;;;;;1.55;0.60;;;9.40;99.90;;;;;;10022588;28;20037;-67
2024/03/24 00:05:03;;;;;;;0.80;0.52;;;9.30;99.90;;;;;;10023506;28;20479;-67
2024/03/24 00:09:54;;;;;;;0.50;0.50;;;9.30;99.90;;;;;;10020611;28;20037;-66
2024/03/24 00:14:45;;;;;;;0.82;0.30;;;9.40;99.90;;;;;;10022409;28;20030;-67
2024/03/24 00:19:36;;;;;;;1.55;0.47;;;9.20;99.90;;;;;;10021407;28;20033;-67
2024/03/24 00:24:26;;;;;;;1.20;0.73;;;9.20;99.90;;;;;;10020713;28;20509;-69
2024/03/24 00:29:17;;;;;;;1.27;0.57;;;9.30;99.90;;;;;;10021063;28;20038;-66
2024/03/24 00:34:08;;;;;;;0.73;0.43;;;9.30;99.90;;;;;;10023412;28;20088;-67
2024/03/24 00:38:58;;;;;;;1.50;0.60;;;9.40;99.90;;;;;;10026118;28;20152;-66
2024/03/24 00:43:49;;;;;;;0.70;0.60;;;9.40;99.90;;;;;;10020964;28;20450;-67
2024/03/24 00:48:40;;;;;;;2.13;0.50;;;9.30;99.90;;;;;;10020389;28;20434;-66
2024/03/24 00:53:30;;;;;;;0.70;0.65;;;9.30;99.90;;;;;;10020041;28;20553;-67
2024/03/24 00:58:21;;;;;;;2.13;0.52;;;9.40;99.90;;;;;;10020352;28;20028;-67
2024/03/24 01:03:12;;;;;;;2.35;0.93;;;9.40;99.90;;;;;;10019063;28;20018;-68
2024/03/24 01:08:03;;;;;;;0.60;0.40;;;9.30;99.90;;;;;;10018571;28;20064;-67
2024/03/24 01:12:53;;;;;;;0.88;0.40;;;9.40;99.90;;;;;;10020295;28;20030;-68
2024/03/24 01:17:47;;;;;;;1.08;0.70;;;9.40;99.90;;;;;;10023888;28;20544;-67
2024/03/24 01:22:42;;;;;;;0.63;0.38;;;9.30;99.90;;;;;;10019163;28;20113;-68
2024/03/24 01:27:33;;;;;;;1.98;0.80;;;9.20;99.90;;;;;;10020195;28;20037;-67
2024/03/24 01:32:23;;;;;;;0.35;0.30;;;9.10;99.90;;;;;;10022483;28;20041;-67
2024/03/24 01:37:14;;;;;;;0.28;0.28;;;9.10;99.90;;;;;;10020115;28;20087;-67
2024/03/24 01:42:05;;;;;;;0.30;0.20;;;9.10;99.90;;;;;;10020723;28;20054;-67
2024/03/24 01:46:56;;;;;;;0.57;0.20;;;9.00;99.90;;;;;;10019914;28;20038;-68
2024/03/24 01:51:47;;;;;;;0.20;0.20;;;8.80;99.90;;;;;;10023279;28;20638;-67
2024/03/24 01:56:37;;;;;;;0.30;0.20;;;8.70;99.90;;;;;;10022135;28;20037;-68
2024/03/24 02:01:28;;;;;;;0.63;0.35;;;8.70;99.90;;;;;;10018915;28;20030;-66
2024/03/24 02:06:19;;;;;;;0.40;0.25;;;8.80;99.90;;;;;;10034509;28;20053;-67
2024/03/24 02:11:09;;;;;;;0.47;0.32;;;8.90;99.90;;;;;;10017645;28;20030;-67
2024/03/24 02:16:00;;;;;;;0.20;0.20;;;8.80;99.90;;;;;;10020386;28;20029;-67
2024/03/24 02:20:51;;;;;;;1.08;0.20;;;8.90;99.90;;;;;;10025637;28;20116;-66
2024/03/24 02:25:42;;;;;;;0.20;0.20;;;8.80;99.90;;;;;;10034858;28;20041;-69
2024/03/24 02:30:32;;;;;;;1.27;0.32;;;8.70;99.90;;;;;;10017598;28;20061;-68
2024/03/24 02:35:25;;;;;;;0.20;0.10;;;8.80;99.90;;;;;;10017742;28;20064;-68
2024/03/24 02:40:16;;;;;;;0.35;0.20;;;8.60;99.90;;;;;;10021535;28;20069;-67
2024/03/24 02:45:06;;;;;;;0.05;0.05;;;8.70;99.90;;;;;;10019029;28;20061;-66
2024/03/24 02:50:00;;;;;;;0.28;0.13;;;8.60;99.90;;;;;;10019408;28;20691;-68
2024/03/24 02:54:51;;;;;;;0.20;0.20;;;8.50;99.90;;;;;;10018541;28;20033;-68
2024/03/24 02:59:41;;;;;;;0.47;0.15;;;8.60;99.90;;;;;;10018397;28;20030;-68
2024/03/24 03:04:32;;;;;;;0.57;0.52;;;8.60;99.90;;;;;;10017007;28;20030;-67
2024/03/24 03:09:26;;;;;;;0.50;0.40;;;8.70;99.90;;;;;;10016138;28;20104;-68
2024/03/24 03:14:17;;;;;;;0.10;0.10;;;8.70;99.90;;;;;;10016884;28;20095;-68
2024/03/24 03:19:08;;;;;;;1.65;0.28;;;8.60;99.90;;;;;;10015791;28;20061;-68
2024/03/24 03:23:58;;;;;;;1.38;0.28;;;8.60;99.90;;;;;;10016584;28;20042;-67
2024/03/24 03:28:49;;;;;;;0.60;0.20;;;8.70;99.90;;;;;;10016119;28;20050;-68
2024/03/24 03:33:40;;;;;;;0.75;0.30;;;8.60;99.90;;;;;;10016385;28;20416;-68
2024/03/24 03:38:30;;;;;;;0.20;0.20;;;8.70;99.90;;;;;;10022706;28;20054;-69
2024/03/24 03:43:21;;;;;;;0.25;0.25;;;8.60;99.90;;;;;;10016320;28;20148;-68
2024/03/24 03:48:12;;;;;;;1.05;0.30;;;8.50;99.90;;;;;;10021573;28;20519;-68
2024/03/24 03:53:07;;;;;;;0.50;0.20;;;8.50;99.90;;;;;;10024114;28;20033;-71
2024/03/24 03:57:57;;;;;;;0.85;0.30;;;8.40;99.90;;;;;;10022886;28;20086;-68
2024/03/24 04:02:48;;;;;;;0.63;0.17;;;8.00;99.90;;;;;;10022851;28;20125;-67
2024/03/24 04:07:39;;;;;;;1.67;0.30;;;7.90;99.90;;;;;;10027692;28;20323;-68
2024/03/24 04:12:30;;;;;;;0.25;0.22;;;7.90;99.90;;;;;;10022250;28;20033;-66
2024/03/24 04:17:21;;;;;;;0.95;0.30;;;8.00;99.90;;;;;;10021666;28;20029;-67
2024/03/24 04:22:12;;;;;;;0.15;0.15;;;8.00;99.90;;;;;;10024466;28;20032;-68
2024/03/24 04:27:02;;;;;;;2.55;0.25;;;8.10;99.90;;;;;;10021605;28;20042;-67
2024/03/24 04:31:53;;;;;;;0.20;0.20;;;8.00;99.90;;;;;;10028780;28;20030;-68
2024/03/24 04:36:44;;;;;;;0.30;0.30;;;8.00;99.90;;;;;;10030066;28;20050;-67
2024/03/24 04:41:34;;;;;;;0.10;0.08;;;8.00;99.90;;;;;;10026730;28;20034;-67
2024/03/24 04:46:25;;;;;;;0.17;0.10;;;8.00;99.90;;;;;;10021673;28;20119;-68
2024/03/24 04:51:17;;;;;;;0.43;0.17;;;8.00;99.90;;;;;;10020731;28;20492;-68
2024/03/24 04:56:07;;;;;;;0.38;0.28;;;8.10;99.90;;;;;;10018872;28;20029;-67
2024/03/24 05:00:58;;;;;;;0.10;0.10;;;8.00;99.90;;;;;;10021430;28;20474;-68
2024/03/24 05:05:49;;;;;;;1.33;0.40;;;8.00;99.90;;;;;;10018623;28;20539;-68
2024/03/24 05:10:41;;;;;;;0.57;0.25;;;7.90;99.90;;;;;;10018978;28;20034;-68
2024/03/24 05:15:31;;;;;;;0.55;0.25;;;7.90;99.90;;;;;;10021593;28;20633;-67
2024/03/24 05:20:22;;;;;;;0.88;0.30;;;7.90;99.90;;;;;;10019408;28;20036;-66
2024/03/24 05:25:13;;;;;;;1.20;0.30;;;7.80;99.90;;;;;;10019332;28;20046;-67
2024/03/24 05:30:04;;;;;;;0.10;0.10;;;7.80;99.90;;;;;;10022835;28;20447;-67
2024/03/24 05:34:54;;;;;;;0.38;0.30;;;7.80;99.90;;;;;;10019574;28;20058;-67
2024/03/24 05:39:48;;;;;;;0.20;0.20;;;7.70;99.90;;;;;;10018827;28;20665;-67
2024/03/24 05:44:39;;;;;;;1.10;0.30;;;7.80;99.90;;;;;;10023597;28;20534;-68
2024/03/24 05:49:29;;;;;;;0.20;0.20;;;7.90;99.90;;;;;;10023578;28;20132;-68
2024/03/24 05:54:20;;;;;;;0.50;0.28;;;7.90;99.90;;;;;;10022290;28;20041;-68
2024/03/24 05:59:10;;;;;;;0.40;0.20;;;7.90;99.90;;;;;;10020500;28;20327;-68
2024/03/24 06:04:02;;;;;;;0.40;0.20;;;7.80;99.90;;;;;;10019213;28;20092;-65
2024/03/24 06:08:53;;;;;;;0.38;0.20;;;7.90;99.90;;;;;;10022859;28;20573;-66
2024/03/24 06:13:43;;;;;;;0.20;0.20;;;8.00;99.90;;;;;;10024944;28;20080;-65
2024/03/24 06:18:34;;;;;;;0.60;0.10;;;8.10;99.90;;;;;;10019095;28;20065;-65
2024/03/24 06:23:25;;;;;;;0.68;0.50;;;8.10;99.90;;;;;;10017407;28;20117;-67
2024/03/24 06:28:16;;;;;;;1.83;0.50;;;8.10;99.90;;;;;;10017194;28;20034;-66
2024/03/24 06:33:07;;;;;;;0.47;0.30;;;8.00;99.90;;;;;;10017076;28;20018;-66
2024/03/24 06:37:57;;;;;;;1.50;0.70;;;8.10;99.90;;;;;;10018490;28;20754;-68
2024/03/24 06:43:02;;;;;;;0.65;0.52;;;8.00;99.90;;;;;;10019543;28;20025;-67
2024/03/24 06:47:53;;;;;;;1.33;0.52;;;8.00;99.90;;;;;;10018031;28;20056;-66
2024/03/24 06:52:43;;;;;;;0.80;0.47;;;8.00;99.90;;;;;;10017098;28;20109;-67
2024/03/24 06:57:34;;;;;;;1.95;0.63;;;7.90;99.90;;;;;;10018558;28;20117;-66
2024/03/24 07:02:24;;;;;;;0.80;0.32;;;8.00;99.90;;;;;;10016945;28;20117;-68
2024/03/24 07:07:15;;;;;;;2.70;0.50;;;8.10;99.90;;;;;;10015748;28;20048;-68
2024/03/24 07:12:06;;;;;;;2.55;0.77;;;8.20;99.90;;;;;;10016543;28;20018;-68
2024/03/24 07:16:57;;;;;;;1.20;1.00;;;8.30;99.90;;;;;;10016902;28;20079;-68
2024/03/24 07:21:48;;;;;;;0.60;0.60;;;8.20;99.90;;;;;;10023956;28;20032;-68
2024/03/24 07:26:38;;;;;;;1.02;0.82;;;8.30;99.90;;;;;;10023305;28;20041;-68
2024/03/24 07:31:29;;;;;;;0.85;0.45;;;8.30;99.90;;;;;;10023747;28;20025;-68
2024/03/24 07:36:20;;;;;;;1.35;0.70;;;8.40;99.90;;;;;;10024659;28;20107;-67
2024/03/24 07:41:11;;;;;;;1.25;0.40;;;8.50;99.90;;;;;;10033414;28;20057;-68
2024/03/24 07:46:01;;;;;;;1.80;0.55;;;8.40;99.90;;;;;;10023039;28;20073;-68
2024/03/24 07:50:52;;;;;;;0.70;0.50;;;8.40;99.90;;;;;;10021915;28;20030;-66
2024/03/24 07:55:43;;;;;;;0.98;0.50;;;8.40;99.90;;;;;;10022784;28;20042;-68
2024/03/24 08:00:34;;;;;;;1.25;0.65;;;8.40;99.90;;;;;;10023028;28;20121;-67
2024/03/24 08:05:24;;;;;;;4.03;0.65;;;8.40;99.90;;;;;;10022698;28;20053;-68
2024/03/24 08:10:15;;;;;;;0.98;0.65;;;8.50;99.90;;;;;;10022490;28;20030;-67
2024/03/24 08:15:07;;;;;;;0.93;0.50;;;8.60;99.90;;;;;;10022291;28;20121;-66
2024/03/24 08:19:58;;;;;;;1.98;0.47;;;8.60;99.90;;;;;;10026868;28;20080;-68
2024/03/24 08:24:48;;;;;;;1.80;0.88;;;8.60;99.90;;;;;;10021554;28;20083;-67
2024/03/24 08:29:39;;;;;;;0.65;0.40;;;8.70;99.90;;;;;;10027984;28;20073;-67
2024/03/24 08:34:30;;;;;;;2.63;0.70;;;8.70;99.90;;;;;;10027813;28;20022;-68
2024/03/24 08:39:20;;;;;;;2.03;1.23;;;8.70;99.90;;;;;;10026433;28;20046;-65
2024/03/24 08:44:12;;;;;;;3.60;1.02;;;8.80;99.90;;;;;;10021719;28;20026;-65
2024/03/24 08:49:03;;;;;;;1.15;0.70;;;8.70;99.90;;;;;;10019782;28;20084;-66
2024/03/24 08:53:53;;;;;;;2.53;0.77;;;8.70;99.90;;;;;;10020390;28;20038;-68
2024/03/24 08:58:44;;;;;;;3.85;1.05;;;8.60;99.90;;;;;;10019945;28;20538;-68
2024/03/24 09:03:34;;;;;;;0.93;0.70;;;8.70;99.90;;;;;;10022843;28;20069;-66
2024/03/24 09:08:25;;;;;;;2.92;1.10;;;8.70;99.90;;;;;;10019006;28;20045;-66
2024/03/24 09:13:16;;;;;;;2.10;1.17;;;8.70;99.90;;;;;;10024411;28;20101;-67
2024/03/24 09:18:06;;;;;;;2.47;0.93;;;8.80;99.90;;;;;;10019026;28;20044;-67
2024/03/24 09:22:57;;;;;;;4.15;0.77;;;8.90;99.90;;;;;;10018505;28;20030;-68
2024/03/24 09:27:48;;;;;;;1.88;0.70;;;9.00;99.90;;;;;;10019564;28;20092;-66
2024/03/24 09:32:39;;;;;;;3.33;1.38;;;8.90;99.90;;;;;;10017883;28;20648;-65
2024/03/24 09:37:30;;;;;;;2.15;0.93;;;9.00;99.90;;;;;;10020194;28;20057;-68
2024/03/24 09:42:21;;;;;;;3.88;0.90;;;9.10;99.90;;;;;;10021428;28;20030;-67
2024/03/24 09:47:11;;;;;;;2.75;0.80;;;9.10;99.90;;;;;;10020703;28;20046;-67
2024/03/24 09:52:04;;;;;;;4.45;1.20;;;9.10;99.90;;;;;;10023359;28;20050;-67
2024/03/24 09:56:55;;;;;;;2.20;0.75;;;9.20;99.90;;;;;;10019909;28;20499;-66
2024/03/24 10:01:47;;;;;;;2.00;1.20;;;9.30;99.90;;;;;;10018408;28;20034;-66
2024/03/24 10:06:38;;;;;;;3.17;1.10;;;9.40;99.90;;;;;;10019339;28;20396;-66
2024/03/24 10:11:33;;;;;;;1.25;0.95;;;9.40;99.90;;;;;;10026792;28;20025;-66
2024/03/24 10:16:23;;;;;;;1.77;0.63;;;9.30;99.90;;;;;;10017867;28;20596;-68
2024/03/24 10:21:15;;;;;;;1.63;0.70;;;9.40;99.90;;;;;;10027419;28;20034;-68
2024/03/24 10:26:06;;;;;;;2.75;1.52;;;9.40;99.90;;;;;;10014449;28;20042;-69
2024/03/24 10:31:08;;;;;;;1.50;0.80;;;9.50;99.90;;;;;;10015900;28;20613;-68
2024/03/24 10:35:59;;;;;;;2.97;0.85;;;9.40;99.90;;;;;;10017610;28;20500;-68
2024/03/24 10:40:57;;;;;;;3.00;1.05;;;9.50;99.90;;;;;;10018358;28;20033;-69
2024/03/24 10:45:48;;;;;;;1.75;0.80;;;9.50;99.90;;;;;;10019581;28;20138;-67
2024/03/24 10:50:40;;;;;;;1.45;1.00;;;9.50;99.90;;;;;;10016040;28;20038;-66
2024/03/24 10:55:33;;;;;;;2.10;0.90;;;9.60;99.90;;;;;;10028654;28;20049;-68
2024/03/24 11:00:28;;;;;;;1.75;0.60;;;9.70;99.90;;;;;;10030777;28;20530;-67
2024/03/24 11:05:19;;;;;;;1.20;0.87;;;9.80;99.90;;;;;;10032934;28;20056;-68
2024/03/24 11:10:10;;;;;;;0.88;0.70;;;9.80;99.90;;;;;;10040647;28;20033;-68
2024/03/24 11:15:00;;;;;;;1.77;1.38;;;9.80;99.90;;;;;;10029753;28;20484;-66
2024/03/24 11:19:51;;;;;;;3.97;0.82;;;9.80;99.90;;;;;;10029607;28;20053;-70
2024/03/24 11:24:42;;;;;;;3.30;1.38;;;10.00;99.90;;;;;;10012232;28;20034;-68
2024/03/24 11:29:45;;;;;;;2.13;0.93;;;10.10;99.90;;;;;;10028918;28;20125;-67
2024/03/24 11:34:48;;;;;;;1.80;0.75;;;10.00;99.90;;;;;;10029671;28;20449;-68
2024/03/24 11:39:40;;;;;;;2.33;0.80;;;9.80;99.90;;;;;;10039885;28;20120;-70
2024/03/24 11:44:32;;;;;;;3.10;0.68;;;10.00;99.90;;;;;;10028888;28;20030;-70
2024/03/24 11:49:35;;;;;;;3.05;0.88;;;10.10;99.90;;;;;;10028743;28;20506;-69
2024/03/24 11:54:26;;;;;;;1.20;0.75;;;10.20;99.90;;;;;;10029238;28;20538;-69
2024/03/24 11:59:17;;;;;;;2.28;0.88;;;10.20;99.90;;;;;;10028930;28;20382;-68
2024/03/24 12:04:08;;;;;;;1.38;0.60;;;10.30;99.90;;;;;;10027992;28;20484;-69
2024/03/24 12:08:59;;;;;;;4.57;1.10;;;10.20;99.90;;;;;;10022190;28;20050;-68
2024/03/24 12:13:49;;;;;;;1.30;0.75;;;10.20;99.90;;;;;;10022016;28;20026;-67
2024/03/24 12:18:40;;;;;;;1.50;0.70;;;10.30;99.90;;;;;;10019621;28;20164;-67
2024/03/24 12:23:31;;;;;;;2.78;0.98;;;10.10;99.90;;;;;;10020379;28;20379;-69
2024/03/24 12:28:22;;;;;;;3.28;0.93;;;9.90;99.90;;;;;;10023783;28;20045;-69
2024/03/24 12:33:12;;;;;;;2.00;0.77;;;9.90;99.90;;;;;;10032054;28;20098;-68
2024/03/24 12:38:03;;;;;;;1.30;0.70;;;9.80;99.90;;;;;;10025138;28;20057;-68
2024/03/24 12:42:54;;;;;;;1.63;1.05;;;9.70;99.90;;;;;;10025290;28;20105;-69
2024/03/24 12:47:45;;;;;;;1.95;1.38;;;9.80;99.90;;;;;;10019406;28;20049;-69
2024/03/24 12:52:35;;;;;;;2.47;0.73;;;10.00;99.90;;;;;;10020632;28;20034;-69
2024/03/24 12:57:27;;;;;;;1.58;0.85;;;10.20;99.90;;;;;;10013876;28;20121;-70
2024/03/24 13:02:18;;;;;;;1.77;0.93;;;10.40;99.90;;;;;;10020456;28;20577;-68
2024/03/24 13:07:08;;;;;;;2.05;0.90;;;10.50;99.90;;;;;;10019766;28;20095;-68
2024/03/24 13:11:59;;;;;;;1.42;0.88;;;10.80;99.90;;;;;;10019991;28;20030;-67
2024/03/24 13:17:01;;;;;;;1.15;0.70;;;11.10;99.90;;;;;;10024021;28;20029;-69
2024/03/24 13:21:52;;;;;;;4.38;0.80;;;11.00;99.90;;;;;;10019327;28;20191;-71
2024/03/24 13:26:46;;;;;;;1.45;0.68;;;10.80;99.90;;;;;;10037019;28;20140;-69
2024/03/24 13:31:37;;;;;;;2.17;1.10;;;10.70;99.90;;;;;;10015323;28;20014;-68
2024/03/24 13:36:44;;;;;;;2.15;0.80;;;10.50;99.90;;;;;;10018297;28;20136;-67
2024/03/24 13:42:10;;;;;;;2.83;0.80;;;10.40;99.90;;;;;;10018887;28;20025;-67
2024/03/24 13:47:11;;;;;;;1.30;0.70;;;10.20;99.90;;;;;;10016342;28;20049;-68
2024/03/24 13:52:05;;;;;;;2.22;0.90;;;9.90;99.90;;;;;;10023420;28;20811;-69
2024/03/24 13:56:56;;;;;;;2.97;0.73;;;9.60;99.90;;;;;;10021040;28;20452;-67
2024/03/24 14:01:47;;;;;;;2.17;0.70;;;9.50;99.90;;;;;;10020235;28;20026;-68
2024/03/24 14:06:37;;;;;;;1.77;0.63;;;9.50;99.90;;;;;;10018921;28;20034;-68
2024/03/24 14:11:28;;;;;;;4.47;0.50;;;9.50;99.90;;;;;;10016180;28;20030;-68
2024/03/24 14:16:49;;;;;;;1.10;0.60;;;9.40;99.90;;;;;;10017985;28;20029;-66
2024/03/24 14:22:13;;;;;;;1.05;0.47;;;9.30;99.90;;;;;;10015710;28;20052;-67
2024/03/24 14:27:04;;;;;;;1.13;0.60;;;9.50;99.90;;;;;;9993720;28;20065;-66
2024/03/24 14:31:54;;;;;;;1.52;0.60;;;9.80;99.90;;;;;;10017603;28;20108;-70
2024/03/24 14:37:08;;;;;;;0.75;0.47;;;9.60;99.90;;;;;;10016103;28;20052;-68
2024/03/24 14:42:03;;;;;;;1.27;0.65;;;9.50;99.90;;;;;;10014885;28;20491;-70
2024/03/24 14:47:09;;;;;;;0.60;0.50;;;10.30;99.90;;;;;;10018130;28;20453;-70
2024/03/24 14:52:00;;;;;;;3.00;0.75;;;11.20;99.90;;;;;;10022059;28;20037;-69
2024/03/24 14:56:51;;;;;;;2.08;1.20;;;11.00;99.90;;;;;;10016540;28;20049;-68
2024/03/24 15:01:41;;;;;;;1.45;0.88;;;10.50;99.90;;;;;;10019563;28;20029;-69
2024/03/24 15:06:32;;;;;;;1.50;0.73;;;10.10;99.90;;;;;;10017870;28;20042;-68
2024/03/24 15:11:22;;;;;;;0.43;0.43;;;9.90;99.90;;;;;;10016774;28;20096;-68
2024/03/24 15:16:13;;;;;;;1.15;0.60;;;9.80;99.90;;;;;;10015892;28;20594;-67
2024/03/24 15:21:04;;;;;;;1.65;0.80;;;10.70;99.90;;;;;;10016248;28;20065;-69
2024/03/24 15:25:55;;;;;;;3.22;0.73;;;11.50;99.90;;;;;;10015536;28;20044;-68
2024/03/24 15:30:46;;;;;;;1.90;0.80;;;12.10;99.90;;;;;;10015634;28;20466;-69
2024/03/24 15:35:37;;;;;;;3.35;0.73;;;12.70;99.90;;;;;;10016152;28;20046;-69
2024/03/24 15:40:28;;;;;;;1.90;0.88;;;13.10;99.90;;;;;;10030601;28;20249;-68
2024/03/24 15:45:19;;;;;;;0.85;0.57;;;12.60;99.90;;;;;;10022831;28;20049;-69
2024/03/24 15:50:09;;;;;;;1.90;0.98;;;11.60;99.90;;;;;;10022315;28;20038;-70
2024/03/24 15:55:00;;;;;;;1.10;0.75;;;10.90;99.90;;;;;;10022842;28;20036;-69
2024/03/24 16:00:09;;;;;;;1.38;0.98;;;10.60;99.90;;;;;;10023504;28;20037;-68
2024/03/24 16:05:03;;;;;;;3.40;1.00;;;10.40;99.90;;;;;;10022361;28;20054;-71
2024/03/24 16:10:00;;;;;;;1.92;1.38;;;9.90;99.90;;;;;;10022199;28;20034;-70
2024/03/24 16:14:51;;;;;;;2.65;0.65;;;8.90;99.90;;;;;;10022438;28;20022;-69
2024/03/24 16:19:41;;;;;;;1.00;0.63;;;8.30;99.90;;;;;;10027875;28;20492;-69
2024/03/24 16:24:32;;;;;;;1.33;0.65;;;8.30;99.90;;;;;;10021382;28;20028;-69
2024/03/24 16:29:26;;;;;;;0.95;0.73;;;8.40;99.90;;;;;;10028535;28;20065;-69
2024/03/24 16:34:17;;;;;;;3.00;0.88;;;8.60;99.90;;;;;;10030272;28;20103;-70
2024/03/24 16:39:09;;;;;;;2.72;1.10;;;8.80;99.90;;;;;;10027555;28;20123;-66
2024/03/24 16:44:00;;;;;;;2.00;0.70;;;8.90;99.90;;;;;;10021125;28;20040;-65
2024/03/24 16:48:51;;;;;;;2.42;0.60;;;9.60;99.90;;;;;;10025006;28;20049;-67
2024/03/24 16:53:41;;;;;;;0.80;0.60;;;10.30;99.90;;;;;;10019449;28;20030;-67
2024/03/24 16:58:36;;;;;;;1.17;0.73;;;10.70;99.90;;;;;;10019759;28;20034;-70
2024/03/24 17:03:26;;;;;;;1.13;0.70;;;11.00;99.90;;;;;;10018817;28;20431;-69
2024/03/24 17:08:17;;;;;;;0.77;0.45;;;11.20;99.90;;;;;;10019965;28;20036;-67
2024/03/24 17:13:08;;;;;;;3.30;0.75;;;10.70;99.90;;;;;;10019546;28;20022;-69
2024/03/24 17:17:58;;;;;;;2.08;0.95;;;10.20;99.90;;;;;;10018804;28;20061;-70
2024/03/24 17:22:49;;;;;;;2.97;0.85;;;9.90;99.90;;;;;;10019415;28;20120;-70
2024/03/24 17:27:40;;;;;;;3.15;0.77;;;9.60;99.90;;;;;;10020576;28;20053;-70
2024/03/24 17:32:30;;;;;;;2.75;0.77;;;9.60;99.90;;;;;;10009242;28;20034;-69
2024/03/24 17:37:21;;;;;;;1.45;0.70;;;9.50;99.90;;;;;;10017242;28;20415;-68
2024/03/24 17:42:12;;;;;;;1.70;1.02;;;9.50;99.90;;;;;;10020531;28;20099;-69
2024/03/24 17:47:03;;;;;;;4.30;1.02;;;9.30;99.90;;;;;;10020689;28;20623;-66
2024/03/24 17:51:54;;;;;;;1.33;0.70;;;9.40;99.90;;;;;;10022499;28;20264;-66
2024/03/24 17:56:44;;;;;;;1.83;1.73;;;9.30;99.90;;;;;;10022299;28;20083;-75
2024/03/24 18:01:35;;;;;;;1.50;0.80;;;9.20;99.90;;;;;;10007051;28;20069;-67
2024/03/24 18:06:25;;;;;;;1.73;0.80;;;9.20;99.90;;;;;;10007078;28;20100;-69
2024/03/24 18:11:16;;;;;;;1.52;0.55;;;9.30;99.90;;;;;;10016825;28;20088;-68
2024/03/24 18:16:07;;;;;;;1.38;0.50;;;9.30;99.90;;;;;;10015742;28;20427;-68
2024/03/24 18:20:59;;;;;;;1.27;0.57;;;9.30;99.90;;;;;;10025970;28;20492;-66
2024/03/24 18:25:50;;;;;;;2.13;0.50;;;9.30;99.90;;;;;;10023050;28;20117;-67
2024/03/24 18:30:40;;;;;;;1.73;0.70;;;9.30;99.90;;;;;;10016316;28;20116;-68
2024/03/24 18:35:31;;;;;;;1.17;0.50;;;9.30;99.90;;;;;;10016350;28;20057;-66
2024/03/24 18:40:22;;;;;;;1.50;0.65;;;9.10;99.90;;;;;;10018962;28;20099;-66
2024/03/24 18:45:13;;;;;;;1.08;0.60;;;9.10;99.90;;;;;;10016807;28;20026;-65
2024/03/24 18:50:05;;;;;;;3.03;0.93;;;9.00;99.90;;;;;;10025300;28;20601;-68
2024/03/24 18:54:55;;;;;;;1.35;0.80;;;9.10;99.90;;;;;;10020051;28;20030;-67
2024/03/24 18:59:46;;;;;;;2.35;0.70;;;9.10;99.90;;;;;;10017738;28;20034;-66
2024/03/24 19:04:37;;;;;;;1.38;0.82;;;9.00;99.90;;;;;;10015758;28;20037;-69
2024/03/24 19:09:27;;;;;;;2.58;0.85;;;9.00;99.90;;;;;;10025334;28;20042;-68
2024/03/24 19:14:18;;;;;;;2.35;1.35;;;9.10;99.90;;;;;;10024154;28;20148;-69
2024/03/24 19:19:09;;;;;;;0.98;0.60;;;9.00;99.90;;;;;;10023991;28;20025;-65
2024/03/24 19:23:59;;;;;;;2.17;0.93;;;8.90;99.90;;;;;;10023868;28;20400;-70
2024/03/24 19:28:50;;;;;;;3.88;3.47;;;9.00;99.90;;;;;;10027626;28;20534;-68
2024/03/24 19:33:42;;;;;;;4.00;1.80;;;9.10;99.90;;;;;;10028356;28;20030;-67
2024/03/24 19:38:32;;;;;;;5.25;1.80;;;9.10;99.90;;;;;;10022347;28;20054;-70
2024/03/24 19:43:23;;;;;;;2.45;1.05;;;9.00;99.90;;;;;;10026589;28;20578;-74
2024/03/24 19:48:14;;;;;;;1.50;1.00;;;8.90;99.90;;;;;;10026872;28;20045;-69
2024/03/24 19:53:04;;;;;;;3.00;1.23;;;8.90;99.90;;;;;;10023833;28;20045;-68
2024/03/24 19:57:55;;;;;;;3.45;1.33;;;8.90;99.90;;;;;;10023239;28;20049;-70
2024/03/24 20:02:46;;;;;;;2.67;1.63;;;8.90;99.90;;;;;;10020641;28;20034;-68
2024/03/24 20:07:38;;;;;;;1.50;0.73;;;8.80;99.90;;;;;;10039320;28;20092;-69
2024/03/24 20:12:28;;;;;;;1.27;0.82;;;8.80;99.90;;;;;;10022092;28;20061;-69
2024/03/24 20:17:19;;;;;;;1.05;0.93;;;8.70;99.90;;;;;;10021838;28;20056;-68
2024/03/24 20:22:10;;;;;;;1.63;1.10;;;8.70;99.90;;;;;;10022156;28;20026;-71
2024/03/24 20:27:01;;;;;;;2.92;1.45;;;8.70;99.90;;;;;;10013172;28;20049;-71
2024/03/24 20:31:51;;;;;;;2.65;1.23;;;8.70;99.90;;;;;;10018865;28;20109;-67
2024/03/24 20:36:42;;;;;;;3.13;1.10;;;8.80;99.90;;;;;;10022368;28;20096;-68
2024/03/24 20:41:33;;;;;;;2.97;1.13;;;8.70;99.90;;;;;;10023338;28;20030;-67
2024/03/24 20:46:24;;;;;;;2.63;1.13;;;8.80;99.90;;;;;;10021125;28;20041;-66
2024/03/24 20:51:16;;;;;;;1.88;0.90;;;8.70;99.90;;;;;;10019634;28;20502;-67
2024/03/24 20:56:07;;;;;;;3.05;1.05;;;8.60;99.90;;;;;;10023967;28;20125;-68
2024/03/24 21:00:59;;;;;;;2.67;1.27;;;8.80;99.90;;;;;;10015347;28;20030;-70
2024/03/24 21:05:50;;;;;;;2.75;1.17;;;8.80;99.90;;;;;;10018162;28;20037;-68
2024/03/24 21:10:40;;;;;;;4.07;1.20;;;8.70;99.90;;;;;;10017784;28;20487;-68
2024/03/24 21:15:31;;;;;;;2.15;1.33;;;8.80;99.90;;;;;;10017690;28;20022;-67
2024/03/24 21:20:22;;;;;;;2.00;0.88;;;8.80;99.90;;;;;;10021824;28;20025;-69
2024/03/24 21:25:13;;;;;;;1.73;1.38;;;8.80;99.90;;;;;;10021000;28;20034;-67
2024/03/24 21:30:04;;;;;;;2.65;1.35;;;8.80;99.90;;;;;;10013153;28;20049;-67
2024/03/24 21:34:55;;;;;;;4.43;1.23;;;8.80;99.90;;;;;;10016865;28;20032;-66
2024/03/24 21:44:55;;;;;;;1.95;1.27;;;8.70;99.90;;;;;;10012400;28;20049;-69
2024/03/24 21:49:46;;;;;;;2.72;1.88;;;8.80;99.90;;;;;;10013044;28;20041;-68
2024/03/24 21:54:37;;;;;;;4.55;2.45;;;8.70;99.90;;;;;;10016783;28;20021;-69
2024/03/24 21:59:28;;;;;;;1.92;1.58;;;8.70;99.90;;;;;;10017784;28;20843;-66
2024/03/24 22:04:22;;;;;;;3.17;1.80;;;8.70;99.90;;;;;;10016551;28;20149;-66
2024/03/24 22:09:14;;;;;;;3.00;1.15;;;8.60;99.90;;;;;;10015563;28;20038;-67
2024/03/24 22:14:07;;;;;;;1.63;1.38;;;8.60;99.90;;;;;;10019295;28;20025;-68
2024/03/24 22:18:58;;;;;;;2.35;1.20;;;8.60;99.90;;;;;;10019932;28;20034;-69
2024/03/24 22:23:50;;;;;;;2.05;1.20;;;8.60;99.90;;;;;;10018060;28;20388;-68
2024/03/24 22:28:41;;;;;;;4.10;0.93;;;8.60;99.90;;;;;;10022029;28;20080;-65
2024/03/24 22:33:32;;;;;;;2.47;1.30;;;8.50;99.90;;;;;;10011342;28;20100;-66
2024/03/24 22:38:23;;;;;;;2.10;1.40;;;8.60;99.90;;;;;;10009319;28;20037;-67
2024/03/24 22:43:14;;;;;;;3.38;1.17;;;8.60;99.90;;;;;;10013904;28;20030;-67
2024/03/24 22:48:05;;;;;;;2.38;1.08;;;8.50;99.90;;;;;;10004331;28;20069;-66
2024/03/24 22:52:55;;;;;;;2.85;1.30;;;8.50;99.90;;;;;;10006465;28;20052;-65
2024/03/24 22:57:46;;;;;;;1.33;0.85;;;8.50;99.90;;;;;;9999064;28;20522;-67
2024/03/24 23:02:37;;;;;;;2.38;1.50;;;8.50;99.90;;;;;;10010318;28;20550;-66
2024/03/24 23:07:28;;;;;;;1.85;1.20;;;8.40;99.90;;;;;;10003844;28;20428;-67
2024/03/24 23:12:19;;;;;;;3.08;1.75;;;8.30;99.90;;;;;;10009288;28;20037;-67
2024/03/24 23:17:09;;;;;;;1.40;1.00;;;8.40;99.90;;;;;;10003329;28;20064;-66
2024/03/24 23:22:00;;;;;;;1.77;0.90;;;8.30;99.90;;;;;;10008040;28;20455;-66
2024/03/24 23:26:51;;;;;;;2.03;1.60;;;8.30;99.90;;;;;;10014964;28;20065;-66
2024/03/24 23:31:42;;;;;;;1.40;0.82;;;8.30;99.90;;;;;;10015711;28;20034;-67
2024/03/24 23:36:33;;;;;;;1.13;0.77;;;8.20;99.90;;;;;;10015020;28;20447;-67
2024/03/24 23:41:23;;;;;;;1.92;1.48;;;8.20;99.90;;;;;;10017213;28;20030;-66
2024/03/24 23:46:16;;;;;;;3.40;1.30;;;8.30;99.90;;;;;;10016946;28;20053;-66
2024/03/24 23:51:06;;;;;;;2.40;1.08;;;8.20;99.90;;;;;;10015899;28;20040;-66
2024/03/24 23:55:57;;;;;;;2.42;1.30;;;8.20;99.90;;;;;;10019956;28;20036;-66
